createdAt,value
2023-04-20T00:01:04.891Z,6.30
2023-04-20T00:03:31.714Z,6.30
2023-04-20T00:05:59.909Z,6.30
2023-04-20T00:08:27.320Z,6.30
2023-04-20T00:10:55.288Z,6.40
2023-04-20T00:13:21.947Z,6.40
2023-04-20T00:15:48.663Z,6.30
2023-04-20T00:18:15.498Z,6.30
2023-04-20T00:20:42.225Z,6.30
2023-04-20T00:23:08.902Z,6.30
2023-04-20T00:25:35.610Z,6.40
2023-04-20T00:28:02.261Z,6.40
2023-04-20T00:30:29.041Z,6.30
2023-04-20T00:32:55.795Z,6.30
2023-04-20T00:35:22.515Z,6.30
2023-04-20T00:37:49.202Z,6.30
2023-04-20T00:40:16.865Z,6.30
2023-04-20T00:42:43.529Z,6.30
2023-04-20T00:45:11.591Z,6.30
2023-04-20T00:47:38.815Z,6.30
2023-04-20T00:50:06.639Z,6.30
2023-04-20T00:52:33.597Z,6.30
2023-04-20T00:55:01.676Z,6.30
2023-04-20T00:57:28.876Z,6.30
2023-04-20T00:59:55.573Z,6.30
2023-04-20T01:02:22.298Z,6.40
2023-04-20T01:04:49.141Z,6.30
2023-04-20T01:07:16.058Z,6.30
2023-04-20T01:09:42.790Z,6.30
2023-04-20T01:12:10.184Z,6.20
2023-04-20T01:14:36.950Z,6.20
2023-04-20T01:17:03.644Z,6.20
2023-04-20T01:19:30.331Z,6.30
2023-04-20T01:21:58.536Z,6.30
2023-04-20T01:24:26.407Z,6.30
2023-04-20T01:26:57.949Z,6.20
2023-04-20T01:29:28.472Z,6.20
2023-04-20T01:31:56.653Z,6.20
2023-04-20T01:34:24.638Z,6.10
2023-04-20T01:36:51.427Z,6.10
2023-04-20T01:39:18.581Z,6.10
2023-04-20T01:41:45.624Z,6.20
2023-04-20T01:44:12.316Z,6.20
2023-04-20T01:46:39.788Z,6.10
2023-04-20T01:49:07.112Z,6.20
2023-04-20T01:51:37.497Z,6.20
2023-04-20T01:54:04.242Z,6.20
2023-04-20T01:56:30.935Z,6.20
2023-04-20T01:58:58.402Z,6.10
2023-04-20T02:01:25.193Z,6.10
2023-04-20T02:03:52.193Z,6.00
2023-04-20T02:06:20.296Z,6.00
2023-04-20T02:08:46.959Z,6.00
2023-04-20T02:11:13.882Z,6.10
2023-04-20T02:13:41.973Z,6.10
2023-04-20T02:16:08.684Z,6.10
2023-04-20T02:18:38.792Z,6.10
2023-04-20T02:21:07.080Z,6.20
2023-04-20T02:23:33.743Z,6.20
2023-04-20T02:26:00.381Z,6.20
2023-04-20T02:28:27.052Z,6.20
2023-04-20T02:30:53.942Z,6.20
2023-04-20T02:33:20.729Z,6.30
2023-04-20T02:35:47.990Z,6.30
2023-04-20T02:38:14.870Z,6.30
2023-04-20T02:40:41.549Z,6.30
2023-04-20T02:43:08.319Z,6.30
2023-04-20T02:45:35.073Z,6.30
2023-04-20T02:48:01.786Z,6.40
2023-04-20T02:50:28.512Z,6.40
2023-04-20T02:52:55.232Z,6.40
2023-04-20T02:55:21.901Z,6.40
2023-04-20T02:57:48.936Z,6.40
2023-04-20T03:00:17.159Z,6.40
2023-04-20T03:02:45.307Z,6.40
2023-04-20T03:05:13.675Z,6.40
2023-04-20T03:07:40.379Z,6.40
2023-04-20T03:10:07.797Z,6.40
2023-04-20T03:12:34.475Z,6.40
2023-04-20T03:15:01.177Z,6.40
2023-04-20T03:17:27.920Z,6.50
2023-04-20T03:19:54.625Z,6.50
2023-04-20T03:22:21.298Z,6.50
2023-04-20T03:24:51.925Z,6.50
2023-04-20T03:27:21.405Z,6.50
2023-04-20T03:29:48.107Z,6.50
2023-04-20T03:32:14.821Z,6.50
2023-04-20T03:34:42.759Z,6.50
2023-04-20T03:37:09.536Z,6.50
2023-04-20T03:39:43.585Z,6.60
2023-04-20T03:42:13.152Z,6.60
2023-04-20T03:44:39.843Z,6.50
2023-04-20T03:47:06.509Z,6.50
2023-04-20T03:49:34.093Z,6.50
2023-04-20T03:52:00.801Z,6.50
2023-04-20T03:54:27.505Z,6.50
2023-04-20T03:56:54.180Z,6.50
2023-04-20T03:59:20.920Z,6.50
2023-04-20T04:01:47.575Z,6.50
2023-04-20T04:04:15.906Z,6.50
2023-04-20T04:06:42.708Z,6.50
2023-04-20T04:09:10.494Z,6.50
2023-04-20T04:11:37.150Z,6.50
2023-04-20T04:14:05.053Z,6.50
2023-04-20T04:16:33.550Z,6.60
2023-04-20T04:19:03.864Z,6.50
2023-04-20T04:21:31.649Z,6.50
2023-04-20T04:24:02.550Z,6.50
2023-04-20T04:26:29.693Z,6.50
2023-04-20T04:28:56.382Z,6.50
2023-04-20T04:31:23.064Z,6.50
2023-04-20T04:33:50.092Z,6.60
2023-04-20T04:36:17.104Z,6.60
2023-04-20T04:38:44.226Z,6.60
2023-04-20T04:41:11.657Z,6.60
2023-04-20T04:43:39.588Z,6.60
2023-04-20T04:46:08.395Z,6.60
2023-04-20T04:48:36.869Z,6.70
2023-04-20T04:51:04.962Z,6.60
2023-04-20T04:53:31.862Z,6.60
2023-04-20T04:55:59.682Z,6.70
2023-04-20T04:58:26.492Z,6.70
2023-04-20T05:00:56.797Z,6.60
2023-04-20T05:03:23.704Z,6.70
2023-04-20T05:05:50.583Z,6.70
2023-04-20T05:08:17.262Z,6.80
2023-04-20T05:10:43.947Z,6.80
2023-04-20T05:13:10.644Z,6.80
2023-04-20T05:15:37.336Z,6.80
2023-04-20T05:18:04.424Z,6.80
2023-04-20T05:20:31.243Z,6.90
2023-04-20T05:22:57.915Z,6.90
2023-04-20T05:25:24.760Z,6.90
2023-04-20T05:27:51.431Z,6.90
2023-04-20T05:30:21.227Z,6.90
2023-04-20T05:32:52.332Z,6.90
2023-04-20T05:35:21.215Z,6.90
2023-04-20T05:37:48.224Z,6.90
2023-04-20T05:40:16.509Z,7.00
2023-04-20T05:42:44.030Z,7.00
2023-04-20T05:45:11.970Z,7.00
2023-04-20T05:47:42.463Z,7.00
2023-04-20T05:50:09.797Z,7.10
2023-04-20T05:52:36.521Z,7.10
2023-04-20T05:55:03.399Z,7.10
2023-04-20T05:57:30.065Z,7.20
2023-04-20T05:59:56.794Z,7.20
2023-04-20T06:02:23.639Z,7.20
2023-04-20T06:04:50.666Z,7.20
2023-04-20T06:07:17.424Z,7.20
2023-04-20T06:09:44.119Z,7.30
2023-04-20T06:12:12.110Z,7.30
2023-04-20T06:14:38.946Z,7.40
2023-04-20T06:17:05.758Z,7.30
2023-04-20T06:19:33.671Z,7.40
2023-04-20T06:22:01.260Z,7.40
2023-04-20T06:24:29.380Z,7.40
2023-04-20T06:26:57.352Z,7.50
2023-04-20T06:29:27.220Z,7.60
2023-04-20T06:31:57.655Z,7.60
2023-04-20T06:34:25.789Z,7.50
2023-04-20T06:36:53.904Z,7.60
2023-04-20T06:39:20.916Z,7.60
2023-04-20T06:41:47.605Z,7.70
2023-04-20T06:44:14.459Z,7.70
2023-04-20T06:46:41.201Z,7.80
2023-04-20T06:49:07.917Z,7.80
2023-04-20T06:51:34.643Z,7.90
2023-04-20T06:54:01.364Z,7.90
2023-04-20T06:56:28.035Z,8.00
2023-04-20T06:58:54.739Z,8.00
2023-04-20T07:01:21.510Z,8.00
2023-04-20T07:03:49.581Z,8.10
2023-04-20T07:06:18.791Z,8.10
2023-04-20T07:08:45.486Z,8.20
2023-04-20T07:11:12.158Z,8.30
2023-04-20T07:13:38.827Z,8.40
2023-04-20T07:16:05.802Z,8.40
2023-04-20T07:18:35.145Z,8.60
2023-04-20T07:21:02.287Z,8.70
2023-04-20T07:23:28.973Z,8.80
2023-04-20T07:25:55.610Z,8.80
2023-04-20T07:28:22.504Z,8.90
2023-04-20T07:30:49.744Z,9.00
2023-04-20T07:33:18.566Z,9.00
2023-04-20T07:35:45.244Z,9.00
2023-04-20T07:38:13.254Z,9.00
2023-04-20T07:40:42.230Z,9.00
2023-04-20T07:43:09.136Z,9.10
2023-04-20T07:45:35.852Z,9.10
2023-04-20T07:48:02.629Z,9.10
2023-04-20T07:50:29.384Z,9.20
2023-04-20T07:52:56.076Z,9.30
2023-04-20T07:55:22.733Z,9.30
2023-04-20T07:57:49.718Z,9.30
2023-04-20T08:00:18.354Z,9.30
2023-04-20T08:02:45.207Z,9.30
2023-04-20T08:05:12.186Z,9.30
2023-04-20T08:07:39.566Z,9.40
2023-04-20T08:10:07.148Z,9.40
2023-04-20T08:12:33.821Z,9.50
2023-04-20T08:15:00.547Z,9.50
2023-04-20T08:17:29.211Z,9.80
2023-04-20T08:19:56.002Z,9.90
2023-04-20T08:22:22.704Z,10.00
2023-04-20T08:24:50.927Z,10.20
2023-04-20T08:27:18.798Z,10.30
2023-04-20T08:29:45.727Z,10.30
2023-04-20T08:32:13.843Z,10.40
2023-04-20T08:34:42.052Z,10.40
2023-04-20T08:37:09.058Z,10.40
2023-04-20T08:39:38.168Z,10.40
2023-04-20T08:42:05.539Z,10.30
2023-04-20T08:44:32.327Z,10.30
2023-04-20T08:46:59.979Z,10.30
2023-04-20T08:49:28.497Z,10.20
2023-04-20T08:51:55.172Z,10.00
2023-04-20T08:54:23.608Z,9.80
2023-04-20T08:56:51.488Z,9.80
2023-04-20T08:59:18.193Z,9.70
2023-04-20T09:01:46.017Z,9.70
2023-04-20T09:04:23.863Z,9.50
2023-04-20T09:06:53.078Z,9.50
2023-04-20T09:09:22.672Z,9.40
2023-04-20T09:12:04.768Z,9.30
2023-04-20T09:14:46.296Z,9.20
2023-04-20T09:17:16.079Z,9.20
2023-04-20T09:19:44.863Z,9.20
2023-04-20T09:22:12.848Z,9.10
2023-04-20T09:24:41.310Z,9.10
2023-04-20T09:27:19.103Z,9.00
2023-04-20T09:30:02.208Z,9.00
2023-04-20T09:32:29.336Z,9.00
2023-04-20T09:34:57.000Z,8.90
2023-04-20T09:37:24.994Z,8.90
2023-04-20T09:39:51.723Z,9.00
2023-04-20T09:42:27.206Z,9.10
2023-04-20T09:45:00.175Z,9.10
2023-04-20T09:47:31.514Z,9.30
2023-04-20T09:50:14.651Z,9.40
2023-04-20T09:52:49.287Z,9.60
2023-04-20T09:55:16.926Z,9.80
2023-04-20T09:57:45.257Z,10.00
2023-04-20T10:00:22.365Z,10.10
2023-04-20T10:02:50.596Z,10.10
2023-04-20T10:05:20.149Z,10.30
2023-04-20T10:08:01.762Z,10.40
2023-04-20T10:10:29.915Z,10.50
2023-04-20T10:13:00.305Z,10.70
2023-04-20T10:15:42.530Z,10.90
2023-04-20T10:18:23.527Z,10.80
2023-04-20T10:20:51.954Z,11.00
2023-04-20T10:23:18.911Z,11.10
2023-04-20T10:25:59.248Z,11.10
2023-04-20T10:28:36.950Z,11.30
2023-04-20T10:31:03.846Z,11.40
2023-04-20T10:33:30.576Z,11.50
2023-04-20T10:35:58.521Z,11.70
2023-04-20T10:38:32.871Z,11.80
2023-04-20T10:41:13.365Z,11.70
2023-04-20T10:43:40.719Z,11.50
2023-04-20T10:46:19.939Z,11.50
2023-04-20T10:48:59.354Z,11.60
2023-04-20T10:51:26.189Z,11.80
2023-04-20T10:54:07.392Z,11.80
2023-04-20T10:56:45.911Z,11.70
2023-04-20T10:59:17.262Z,11.80
2023-04-20T11:01:45.706Z,12.00
2023-04-20T11:04:13.838Z,12.10
2023-04-20T11:06:44.737Z,12.30
2023-04-20T11:09:21.972Z,12.50
2023-04-20T11:12:08.530Z,12.70
2023-04-20T11:14:50.020Z,12.70
2023-04-20T11:17:16.868Z,12.70
2023-04-20T11:19:43.609Z,12.80
2023-04-20T11:22:21.633Z,12.80
2023-04-20T11:24:48.349Z,12.80
2023-04-20T11:27:21.318Z,12.80
2023-04-20T11:29:58.518Z,12.90
2023-04-20T11:32:26.638Z,13.00
2023-04-20T11:35:08.304Z,13.10
2023-04-20T11:37:46.511Z,13.20
2023-04-20T11:40:13.481Z,13.30
2023-04-20T11:42:40.303Z,13.30
2023-04-20T11:45:07.556Z,13.30
2023-04-20T11:47:34.271Z,13.30
2023-04-20T11:50:01.011Z,13.30
2023-04-20T11:52:27.697Z,13.40
2023-04-20T11:54:54.431Z,13.40
2023-04-20T11:57:21.121Z,13.50
2023-04-20T11:59:49.114Z,13.50
2023-04-20T12:02:17.066Z,13.60
2023-04-20T12:04:48.369Z,13.60
2023-04-20T12:07:18.886Z,13.60
2023-04-20T12:09:48.191Z,13.80
2023-04-20T12:12:14.909Z,13.90
2023-04-20T12:14:41.581Z,14.10
2023-04-20T12:17:08.413Z,14.20
2023-04-20T12:19:35.137Z,14.40
2023-04-20T12:22:01.949Z,14.50
2023-04-20T12:24:28.818Z,14.50
2023-04-20T12:26:55.550Z,14.50
2023-04-20T12:29:22.215Z,14.50
2023-04-20T12:31:49.786Z,14.50
2023-04-20T12:34:18.750Z,14.70
2023-04-20T12:36:47.745Z,14.70
2023-04-20T12:39:14.594Z,14.70
2023-04-20T12:41:41.725Z,14.80
2023-04-20T12:44:10.731Z,14.90
2023-04-20T12:46:38.240Z,14.90
2023-04-20T12:49:05.048Z,14.80
2023-04-20T12:51:31.774Z,14.90
2023-04-20T12:53:58.544Z,14.90
2023-04-20T12:56:25.293Z,15.00
2023-04-20T12:58:51.945Z,15.20
2023-04-20T13:01:18.757Z,15.40
2023-04-20T13:03:46.803Z,15.40
2023-04-20T13:06:14.605Z,15.30
2023-04-20T13:08:42.434Z,15.30
2023-04-20T13:11:11.490Z,15.30
2023-04-20T13:13:39.402Z,15.30
2023-04-20T13:16:06.341Z,15.40
2023-04-20T13:18:33.801Z,15.40
2023-04-20T13:21:00.737Z,15.30
2023-04-20T13:23:27.503Z,15.40
2023-04-20T13:25:54.297Z,15.40
2023-04-20T13:28:20.942Z,15.50
2023-04-20T13:30:47.821Z,15.80
2023-04-20T13:33:14.641Z,16.20
2023-04-20T13:35:41.327Z,16.60
2023-04-20T13:38:08.071Z,16.70
2023-04-20T13:40:34.831Z,16.60
2023-04-20T13:43:01.564Z,16.40
2023-04-20T13:45:28.375Z,16.20
2023-04-20T13:47:55.735Z,16.10
2023-04-20T13:50:23.690Z,16.00
2023-04-20T13:52:51.187Z,15.90
2023-04-20T13:55:17.964Z,15.90
2023-04-20T13:57:44.633Z,16.00
2023-04-20T14:00:15.081Z,16.00
2023-04-20T14:02:41.906Z,16.00
2023-04-20T14:05:08.940Z,16.00
2023-04-20T14:07:35.712Z,16.00
2023-04-20T14:10:02.481Z,16.00
2023-04-20T14:12:29.390Z,16.00
2023-04-20T14:14:59.974Z,16.10
2023-04-20T14:17:26.843Z,16.10
2023-04-20T14:19:53.815Z,16.10
2023-04-20T14:22:20.498Z,16.00
2023-04-20T14:24:48.292Z,16.00
2023-04-20T14:27:16.168Z,15.90
2023-04-20T14:29:43.724Z,15.80
2023-04-20T14:32:12.350Z,15.80
2023-04-20T14:34:39.026Z,15.70
2023-04-20T14:37:06.833Z,15.80
2023-04-20T14:39:33.570Z,15.90
2023-04-20T14:42:00.322Z,15.90
2023-04-20T14:44:27.139Z,16.00
2023-04-20T14:46:53.949Z,16.10
2023-04-20T14:49:20.701Z,16.20
2023-04-20T14:51:47.405Z,16.20
2023-04-20T14:54:14.164Z,16.10
2023-04-20T14:56:40.914Z,16.20
2023-04-20T14:59:07.808Z,16.30
2023-04-20T15:01:34.519Z,16.30
2023-04-20T15:04:01.512Z,16.30
2023-04-20T15:06:28.395Z,16.30
2023-04-20T15:08:55.412Z,16.30
2023-04-20T15:11:22.366Z,16.30
2023-04-20T15:13:49.441Z,16.20
2023-04-20T15:16:16.214Z,16.00
2023-04-20T15:18:43.263Z,15.90
2023-04-20T15:21:09.968Z,15.80
2023-04-20T15:23:39.724Z,15.80
2023-04-20T15:26:07.715Z,15.80
2023-04-20T15:28:34.494Z,15.80
2023-04-20T15:31:01.194Z,15.80
2023-04-20T15:33:27.846Z,15.80
2023-04-20T15:35:54.535Z,15.80
2023-04-20T15:38:21.198Z,15.80
2023-04-20T15:40:49.153Z,15.80
2023-04-20T15:43:16.986Z,15.80
2023-04-20T15:45:45.132Z,15.80
2023-04-20T15:48:12.634Z,15.80
2023-04-20T15:50:40.645Z,15.80
2023-04-20T15:53:07.469Z,15.80
2023-04-20T15:55:39.173Z,15.70
2023-04-20T15:58:05.954Z,15.70
2023-04-20T16:00:32.679Z,15.70
2023-04-20T16:02:59.530Z,15.70
2023-04-20T16:05:26.602Z,15.70
2023-04-20T16:07:53.395Z,15.60
2023-04-20T16:10:20.490Z,15.60
2023-04-20T16:12:47.641Z,15.60
2023-04-20T16:15:14.416Z,15.50
2023-04-20T16:17:41.134Z,15.70
2023-04-20T16:20:08.777Z,15.80
2023-04-20T16:22:35.517Z,15.80
2023-04-20T16:25:02.258Z,16.00
2023-04-20T16:27:29.462Z,16.10
2023-04-20T16:29:56.260Z,16.20
2023-04-20T16:32:24.332Z,16.20
2023-04-20T16:34:51.163Z,16.30
2023-04-20T16:37:27.856Z,16.30
2023-04-20T16:40:04.233Z,16.30
2023-04-20T16:42:33.356Z,16.30
2023-04-20T16:45:03.072Z,16.30
2023-04-20T16:47:32.186Z,16.30
2023-04-20T16:49:58.979Z,16.30
2023-04-20T16:52:25.731Z,16.30
2023-04-20T16:54:52.613Z,16.30
2023-04-20T16:57:19.271Z,16.30
2023-04-20T16:59:46.025Z,16.20
2023-04-20T17:02:12.893Z,16.00
2023-04-20T17:04:39.840Z,15.80
2023-04-20T17:07:06.605Z,15.70
2023-04-20T17:09:33.618Z,15.60
2023-04-20T17:12:00.522Z,15.50
2023-04-20T17:14:27.314Z,15.40
2023-04-20T17:16:54.134Z,15.30
2023-04-20T17:19:21.025Z,15.20
2023-04-20T17:21:47.790Z,15.10
2023-04-20T17:24:16.262Z,14.90
2023-04-20T17:26:44.968Z,14.80
2023-04-20T17:29:14.770Z,14.70
2023-04-20T17:31:44.724Z,14.70
2023-04-20T17:34:16.414Z,14.60
2023-04-20T17:36:43.165Z,14.50
2023-04-20T17:39:09.880Z,14.40
2023-04-20T17:41:36.665Z,14.40
2023-04-20T17:44:03.348Z,14.30
2023-04-20T17:46:30.254Z,14.20
2023-04-20T17:48:57.073Z,14.10
2023-04-20T17:51:23.829Z,14.00
2023-04-20T17:53:50.531Z,14.00
2023-04-20T17:56:17.282Z,13.90
2023-04-20T17:58:44.206Z,13.80
2023-04-20T18:01:11.100Z,13.80
2023-04-20T18:03:38.067Z,13.70
2023-04-20T18:06:04.909Z,13.60
2023-04-20T18:08:31.672Z,13.50
2023-04-20T18:10:58.341Z,13.50
2023-04-20T18:13:26.355Z,13.50
2023-04-20T18:15:55.135Z,13.40
2023-04-20T18:18:23.763Z,13.40
2023-04-20T18:20:51.784Z,13.30
2023-04-20T18:23:21.843Z,13.20
2023-04-20T18:25:48.546Z,13.20
2023-04-20T18:28:16.056Z,13.10
2023-04-20T18:30:42.714Z,13.00
2023-04-20T18:33:09.474Z,13.00
2023-04-20T18:35:36.308Z,13.00
2023-04-20T18:38:03.046Z,12.90
2023-04-20T18:40:29.820Z,12.80
2023-04-20T18:42:56.806Z,12.80
2023-04-20T18:45:23.744Z,12.80
2023-04-20T18:47:51.795Z,12.70
2023-04-20T18:50:18.678Z,12.70
2023-04-20T18:52:46.686Z,12.60
2023-04-20T18:55:14.808Z,12.60
2023-04-20T18:57:42.855Z,12.60
2023-04-20T19:00:09.934Z,12.50
2023-04-20T19:02:38.094Z,12.50
2023-04-20T19:05:05.309Z,12.40
2023-04-20T19:07:34.240Z,12.40
2023-04-20T19:10:01.105Z,12.40
2023-04-20T19:12:28.094Z,12.30
2023-04-20T19:14:54.760Z,12.30
2023-04-20T19:17:21.507Z,12.30
2023-04-20T19:19:48.258Z,12.30
2023-04-20T19:22:15.121Z,12.20
2023-04-20T19:24:41.864Z,12.20
2023-04-20T19:27:08.499Z,12.20
2023-04-20T19:29:35.417Z,12.10
2023-04-20T19:32:02.597Z,12.20
2023-04-20T19:34:29.380Z,12.10
2023-04-20T19:36:56.078Z,12.10
2023-04-20T19:39:22.751Z,12.10
2023-04-20T19:41:50.484Z,12.00
2023-04-20T19:44:17.373Z,12.00
2023-04-20T19:46:51.279Z,12.00
2023-04-20T19:49:19.189Z,11.90
2023-04-20T19:51:48.556Z,11.90
2023-04-20T19:54:15.304Z,11.90
2023-04-20T19:56:42.000Z,11.90
2023-04-20T19:59:08.731Z,11.80
2023-04-20T20:01:35.481Z,11.80
2023-04-20T20:04:02.327Z,11.80
2023-04-20T20:06:29.302Z,11.80
2023-04-20T20:08:55.996Z,11.70
2023-04-20T20:11:22.679Z,11.70
2023-04-20T20:13:50.913Z,11.70
2023-04-20T20:16:17.832Z,11.70
2023-04-20T20:18:44.625Z,11.70
2023-04-20T20:21:12.468Z,11.70
2023-04-20T20:23:40.377Z,11.60
2023-04-20T20:26:08.557Z,11.60
2023-04-20T20:28:45.013Z,11.60
2023-04-20T20:31:15.221Z,11.60
2023-04-20T20:33:43.183Z,11.60
2023-04-20T20:36:10.051Z,11.60
2023-04-20T20:38:36.814Z,11.50
2023-04-20T20:41:03.546Z,11.50
2023-04-20T20:43:30.190Z,11.50
2023-04-20T20:45:56.952Z,11.50
2023-04-20T20:48:23.833Z,11.50
2023-04-20T20:50:50.495Z,11.40
2023-04-20T20:53:18.435Z,11.40
2023-04-20T20:55:45.092Z,11.50
2023-04-20T20:58:12.856Z,11.40
2023-04-20T21:00:39.743Z,11.40
2023-04-20T21:03:08.327Z,11.40
2023-04-20T21:05:35.846Z,11.40
2023-04-20T21:08:05.917Z,11.40
2023-04-20T21:10:32.593Z,11.30
2023-04-20T21:12:59.293Z,11.30
2023-04-20T21:15:25.969Z,11.30
2023-04-20T21:17:52.693Z,11.20
2023-04-20T21:20:19.508Z,11.20
2023-04-20T21:22:46.234Z,11.30
2023-04-20T21:25:12.982Z,11.20
2023-04-20T21:27:39.825Z,11.20
2023-04-20T21:30:07.075Z,11.20
2023-04-20T21:32:33.804Z,11.20
2023-04-20T21:35:00.487Z,11.20
2023-04-20T21:37:27.360Z,11.20
2023-04-20T21:39:54.019Z,11.20
2023-04-20T21:42:20.713Z,11.20
2023-04-20T21:44:48.828Z,11.20
2023-04-20T21:47:15.586Z,11.10
2023-04-20T21:49:45.548Z,11.10
2023-04-20T21:52:12.308Z,11.10
2023-04-20T21:54:41.132Z,11.10
2023-04-20T21:57:07.856Z,11.10
2023-04-20T21:59:40.081Z,11.10
2023-04-20T22:02:06.879Z,11.10
2023-04-20T22:04:33.856Z,11.00
2023-04-20T22:07:00.697Z,11.00
2023-04-20T22:09:27.487Z,11.00
2023-04-20T22:11:54.253Z,11.00
2023-04-20T22:14:21.018Z,11.00
2023-04-20T22:16:47.770Z,11.00
2023-04-20T22:19:15.610Z,11.00
2023-04-20T22:21:43.798Z,11.00
2023-04-20T22:24:12.026Z,11.00
2023-04-20T22:26:39.943Z,10.90
2023-04-20T22:29:07.683Z,10.90
2023-04-20T22:31:35.919Z,10.90
2023-04-20T22:34:05.024Z,10.90
2023-04-20T22:36:32.061Z,10.90
2023-04-20T22:38:58.817Z,10.90
2023-04-20T22:41:25.512Z,10.90
2023-04-20T22:43:52.248Z,10.80
2023-04-20T22:46:19.344Z,10.80
2023-04-20T22:48:48.381Z,10.80
2023-04-20T22:51:16.211Z,10.80
2023-04-20T22:53:43.431Z,10.80
2023-04-20T22:56:10.495Z,10.80
2023-04-20T22:58:37.196Z,10.80
2023-04-20T23:01:03.994Z,10.80
2023-04-20T23:03:31.049Z,10.70
2023-04-20T23:05:57.988Z,10.80
2023-04-20T23:08:25.700Z,10.70
2023-04-20T23:10:52.895Z,10.70
2023-04-20T23:13:22.117Z,10.70
2023-04-20T23:15:49.536Z,10.70
2023-04-20T23:18:25.540Z,10.70
2023-04-20T23:20:55.827Z,10.70
2023-04-20T23:23:23.809Z,10.70
2023-04-20T23:25:50.531Z,10.70
2023-04-20T23:28:17.303Z,10.60
2023-04-20T23:30:44.019Z,10.60
2023-04-20T23:33:10.667Z,10.60
2023-04-20T23:35:37.574Z,10.60
2023-04-20T23:38:04.345Z,10.60
2023-04-20T23:40:31.253Z,10.60
2023-04-20T23:42:57.961Z,10.60
2023-04-20T23:45:24.708Z,10.50
2023-04-20T23:47:51.495Z,10.50
2023-04-20T23:50:19.641Z,10.50
2023-04-20T23:52:46.335Z,10.50
2023-04-20T23:55:14.560Z,10.50
2023-04-20T23:57:41.364Z,10.50
